createdAt,value
2019-05-20T00:02:04.554Z,14.44
2019-05-20T00:04:33.920Z,14.34
2019-05-20T00:07:03.469Z,14.32
2019-05-20T00:12:47.150Z,14.44
2019-05-20T00:18:25.875Z,14.43
2019-05-20T00:23:43.733Z,14.52
2019-05-20T00:26:52.478Z,14.51
2019-05-20T00:30:01.702Z,14.55
2019-05-20T00:32:40.700Z,14.54
2019-05-20T00:35:02.544Z,14.54
2019-05-20T00:37:33.451Z,14.60
2019-05-20T00:40:02.877Z,14.61
2019-05-20T00:42:32.331Z,14.63
2019-05-20T00:45:01.856Z,14.61
2019-05-20T00:47:31.249Z,14.61
2019-05-20T00:50:00.835Z,14.51
2019-05-20T00:52:30.849Z,14.56
2019-05-20T00:55:00.242Z,14.49
2019-05-20T00:58:09.125Z,14.50
2019-05-20T01:09:02.087Z,14.62
2019-05-20T01:11:31.443Z,14.58
2019-05-20T01:14:00.975Z,14.49
2019-05-20T01:22:00.658Z,14.47
2019-05-20T01:24:30.384Z,14.44
2019-05-20T01:26:59.786Z,14.42
2019-05-20T01:32:43.218Z,14.39
2019-05-20T01:35:52.409Z,14.40
2019-05-20T01:41:49.437Z,14.38
2019-05-20T01:46:58.181Z,14.26
2019-05-20T01:49:27.533Z,14.28
2019-05-20T01:51:57.095Z,14.25
2019-05-20T01:55:05.808Z,14.25
2019-05-20T01:57:35.322Z,14.29
2019-05-20T02:00:44.246Z,14.34
2019-05-20T02:03:28.775Z,14.30
2019-05-20T02:06:25.298Z,14.34
2019-05-20T02:08:54.756Z,14.37
2019-05-20T02:11:24.160Z,14.36
2019-05-20T02:16:49.290Z,14.37
2019-05-20T02:19:18.705Z,14.35
2019-05-20T02:24:43.709Z,14.40
2019-05-20T02:30:27.587Z,14.26
2019-05-20T02:32:57.025Z,14.32
2019-05-20T02:36:05.811Z,14.39
2019-05-20T02:41:48.442Z,14.43
2019-05-20T02:44:29.168Z,14.44
2019-05-20T02:47:37.997Z,14.48
2019-05-20T02:53:02.271Z,14.53
2019-05-20T03:01:36.527Z,14.60
2019-05-20T03:04:11.981Z,14.56
2019-05-20T03:07:16.443Z,14.58
2019-05-20T03:09:45.859Z,14.59
2019-05-20T03:12:15.445Z,14.59
2019-05-20T03:15:24.175Z,14.64
2019-05-20T03:17:53.583Z,14.68
2019-05-20T03:20:23.043Z,14.70
2019-05-20T03:23:31.711Z,14.73
2019-05-20T03:32:03.803Z,14.74
2019-05-20T03:35:12.444Z,14.72
2019-05-20T03:43:38.586Z,14.78
2019-05-20T03:57:55.434Z,14.63
2019-05-20T04:01:17.456Z,14.61
2019-05-20T04:03:58.808Z,14.51
2019-05-20T04:06:28.309Z,14.58
2019-05-20T04:08:57.920Z,14.66
2019-05-20T04:11:27.367Z,14.70
2019-05-20T04:17:11.189Z,14.88
2019-05-20T04:19:40.690Z,14.98
2019-05-20T04:22:10.051Z,15.03
2019-05-20T04:28:13.955Z,14.97
2019-05-20T04:33:38.338Z,15.07
2019-05-20T04:36:07.746Z,15.10
2019-05-20T04:38:37.085Z,15.17
2019-05-20T04:41:45.765Z,15.21
2019-05-20T04:50:28.470Z,15.46
2019-05-20T04:52:57.975Z,15.37
2019-05-20T04:55:27.460Z,15.38
2019-05-20T04:57:57.160Z,15.28
2019-05-20T05:01:04.833Z,15.33
2019-05-20T05:03:36.577Z,15.47
2019-05-20T05:06:17.658Z,15.58
2019-05-20T05:09:26.386Z,15.62
2019-05-20T05:11:55.896Z,15.69
2019-05-20T05:20:18.504Z,15.87
2019-05-20T05:22:46.897Z,15.85
2019-05-20T05:28:11.375Z,15.90
2019-05-20T05:33:55.132Z,15.87
2019-05-20T05:36:24.527Z,15.79
2019-05-20T05:38:53.988Z,15.82
2019-05-20T05:41:23.534Z,15.83
2019-05-20T05:47:02.269Z,15.74
2019-05-20T05:52:22.899Z,15.71
2019-05-20T06:04:06.803Z,15.73
2019-05-20T06:09:16.942Z,15.84
2019-05-20T06:12:25.603Z,15.86
2019-05-20T06:18:09.038Z,15.77
2019-05-20T06:23:39.888Z,16.05
2019-05-20T06:26:09.359Z,16.07
2019-05-20T06:28:38.668Z,16.06
2019-05-20T06:43:12.408Z,16.52
2019-05-20T06:45:41.997Z,16.60
2019-05-20T06:48:50.720Z,16.74
2019-05-20T06:51:20.263Z,16.88
2019-05-20T06:53:49.749Z,16.91
2019-05-20T06:56:19.383Z,16.97
2019-05-20T06:58:49.048Z,17.01
2019-05-20T07:01:18.467Z,17.00
2019-05-20T07:03:47.885Z,17.06
2019-05-20T07:09:31.747Z,17.23
2019-05-20T07:12:01.407Z,17.50
2019-05-20T07:14:31.001Z,17.60
2019-05-20T07:17:39.791Z,17.66
2019-05-20T07:23:10.737Z,17.55
2019-05-20T07:25:40.238Z,17.59
2019-05-20T07:28:10.310Z,17.67
2019-05-20T07:31:00.584Z,17.84
2019-05-20T07:33:29.991Z,17.30
2019-05-20T07:36:38.681Z,17.79
2019-05-20T07:42:42.630Z,17.82
2019-05-20T07:45:32.631Z,17.88
2019-05-20T07:48:41.461Z,17.86
2019-05-20T08:06:42.124Z,18.04
2019-05-20T08:09:11.664Z,18.31
2019-05-20T08:11:41.145Z,18.62
2019-05-20T08:14:49.953Z,18.67
2019-05-20T08:21:07.377Z,19.31
2019-05-20T08:23:37.117Z,19.44
2019-05-20T08:29:02.123Z,19.58
2019-05-20T08:31:31.628Z,19.59
2019-05-20T08:34:40.610Z,19.82
2019-05-20T08:37:11.613Z,19.86
2019-05-20T08:39:41.121Z,20.00
2019-05-20T08:42:10.637Z,20.19
2019-05-20T08:44:40.024Z,19.97
2019-05-20T08:53:07.150Z,20.08
2019-05-20T08:55:56.318Z,20.52
2019-05-20T08:58:25.907Z,20.85
2019-05-20T09:00:55.654Z,21.10
2019-05-20T09:06:07.225Z,21.30
2019-05-20T09:08:37.031Z,21.59
2019-05-20T09:11:06.442Z,21.93
2019-05-20T09:13:36.008Z,21.80
2019-05-20T09:16:45.105Z,21.89
2019-05-20T09:22:24.038Z,22.17
2019-05-20T09:31:03.925Z,23.14
2019-05-20T09:36:42.175Z,22.38
2019-05-20T09:39:11.581Z,22.05
2019-05-20T09:41:41.013Z,22.42
2019-05-20T09:44:10.571Z,22.64
2019-05-20T09:49:55.306Z,22.88
2019-05-20T09:53:06.919Z,23.14
2019-05-20T09:58:30.832Z,23.18
2019-05-20T10:01:40.452Z,23.02
2019-05-20T10:04:50.064Z,23.05
2019-05-20T10:07:19.466Z,23.36
2019-05-20T10:09:49.282Z,23.50
2019-05-20T10:12:58.097Z,23.78
2019-05-20T10:15:27.724Z,23.75
2019-05-20T10:18:38.516Z,23.86
2019-05-20T10:24:08.946Z,24.63
2019-05-20T10:26:38.422Z,24.19
2019-05-20T10:29:09.883Z,24.26
2019-05-20T10:32:18.922Z,24.49
2019-05-20T10:35:07.413Z,24.62
2019-05-20T10:37:36.856Z,24.72
2019-05-20T10:43:20.553Z,24.66
2019-05-20T10:45:50.041Z,25.09
2019-05-20T10:48:58.719Z,25.14
2019-05-20T10:51:58.481Z,24.77
2019-05-20T10:54:27.902Z,24.02
2019-05-20T10:56:59.694Z,24.05
2019-05-20T10:59:28.542Z,23.56
2019-05-20T11:04:53.633Z,23.60
2019-05-20T11:07:23.100Z,23.76
2019-05-20T11:10:31.792Z,23.77
2019-05-20T11:13:01.544Z,23.89
2019-05-20T11:15:53.493Z,24.05
2019-05-20T11:21:18.160Z,23.71
2019-05-20T11:23:47.707Z,23.69
2019-05-20T11:26:56.451Z,23.74
2019-05-20T11:35:41.359Z,23.98
2019-05-20T11:38:10.843Z,24.22
2019-05-20T11:40:40.359Z,24.51
2019-05-20T11:43:09.928Z,24.62
2019-05-20T11:45:39.426Z,24.61
2019-05-20T11:48:11.417Z,24.54
2019-05-20T11:51:20.060Z,24.35
2019-05-20T11:56:50.963Z,24.18
2019-05-20T11:59:59.687Z,24.24
2019-05-20T12:03:08.384Z,24.58
2019-05-20T12:08:52.405Z,24.24
2019-05-20T12:12:01.068Z,24.30
2019-05-20T12:14:30.746Z,24.16
2019-05-20T12:17:00.190Z,24.29
2019-05-20T12:19:29.644Z,24.52
2019-05-20T12:21:59.063Z,24.37
2019-05-20T12:24:28.571Z,24.37
2019-05-20T12:26:58.423Z,24.58
2019-05-20T12:29:28.267Z,24.88
2019-05-20T12:31:57.740Z,24.73
2019-05-20T12:35:06.430Z,24.63
2019-05-20T12:37:35.986Z,24.55
2019-05-20T12:40:45.112Z,24.22
2019-05-20T12:46:26.525Z,24.88
2019-05-20T12:52:10.695Z,24.20
2019-05-20T12:54:41.899Z,24.55
2019-05-20T12:57:11.440Z,24.89
2019-05-20T12:59:41.120Z,24.62
2019-05-20T13:02:49.905Z,25.15
2019-05-20T13:05:58.658Z,25.08
2019-05-20T13:08:28.073Z,25.29
2019-05-20T13:10:57.478Z,25.82
2019-05-20T13:14:06.213Z,26.02
2019-05-20T13:22:56.188Z,26.27
2019-05-20T13:25:25.745Z,25.18
2019-05-20T13:27:55.349Z,25.19
2019-05-20T13:30:24.956Z,24.83
2019-05-20T13:36:08.868Z,23.94
2019-05-20T13:38:38.239Z,23.44
2019-05-20T13:41:07.941Z,22.68
2019-05-20T13:44:16.691Z,22.60
2019-05-20T13:46:46.250Z,22.53
2019-05-20T13:49:55.004Z,22.79
2019-05-20T13:55:39.084Z,21.53
2019-05-20T13:58:08.545Z,21.31
2019-05-20T14:00:57.038Z,21.89
2019-05-20T14:12:30.486Z,21.69
2019-05-20T14:15:00.021Z,20.77
2019-05-20T14:17:29.815Z,20.77
2019-05-20T14:20:01.085Z,20.72
2019-05-20T14:23:09.756Z,20.51
2019-05-20T14:26:18.563Z,20.41
2019-05-20T14:31:41.308Z,23.77
2019-05-20T14:37:38.715Z,26.07
2019-05-20T14:43:22.661Z,27.24
2019-05-20T14:45:54.028Z,27.57
2019-05-20T14:48:23.697Z,27.70
2019-05-20T14:50:53.174Z,27.01
2019-05-20T14:56:37.529Z,26.38
2019-05-20T14:59:06.895Z,24.89
2019-05-20T15:01:36.524Z,22.76
2019-05-20T15:04:06.524Z,21.17
2019-05-20T15:06:36.060Z,20.03
2019-05-20T15:09:44.822Z,19.36
2019-05-20T15:15:23.198Z,18.90
2019-05-20T15:17:52.547Z,18.23
2019-05-20T15:20:22.207Z,17.92
2019-05-20T15:22:51.613Z,17.70
2019-05-20T15:25:21.020Z,17.30
2019-05-20T15:27:50.568Z,17.24
2019-05-20T15:30:59.223Z,16.83
2019-05-20T15:36:30.830Z,16.15
2019-05-20T15:42:08.969Z,15.58
2019-05-20T15:51:00.105Z,15.66
2019-05-20T15:53:29.694Z,15.91
2019-05-20T15:59:13.869Z,16.04
2019-05-20T16:01:43.308Z,16.01
2019-05-20T16:04:12.763Z,15.85
2019-05-20T16:09:49.013Z,15.62
2019-05-20T16:12:18.486Z,15.50
2019-05-20T16:14:51.308Z,15.57
2019-05-20T16:17:19.184Z,15.51
2019-05-20T16:19:48.869Z,15.42
2019-05-20T16:22:18.417Z,15.30
2019-05-20T16:27:43.680Z,15.10
2019-05-20T16:30:52.316Z,15.08
2019-05-20T16:36:17.556Z,15.05
2019-05-20T16:38:47.002Z,14.79
2019-05-20T16:41:16.729Z,14.58
2019-05-20T16:44:25.462Z,14.78
2019-05-20T16:46:55.008Z,14.84
2019-05-20T16:49:24.695Z,14.68
2019-05-20T16:51:54.344Z,14.60
2019-05-20T16:57:38.315Z,14.58
2019-05-20T17:00:46.959Z,14.61
2019-05-20T17:03:16.632Z,14.62
2019-05-20T17:05:46.061Z,14.62
2019-05-20T17:08:15.411Z,14.67
2019-05-20T17:10:44.837Z,14.55
2019-05-20T17:13:14.308Z,14.26
2019-05-20T17:15:43.740Z,14.01
2019-05-20T17:21:08.274Z,13.90
2019-05-20T17:23:37.674Z,13.83
2019-05-20T17:26:07.128Z,13.80
2019-05-20T17:28:36.827Z,13.78
2019-05-20T17:31:06.310Z,13.78
2019-05-20T17:33:55.056Z,13.73
2019-05-20T17:36:25.191Z,13.51
2019-05-20T17:38:54.592Z,13.39
2019-05-20T17:41:24.096Z,13.38
2019-05-20T17:52:19.749Z,13.40
2019-05-20T17:54:49.166Z,13.19
2019-05-20T17:57:18.623Z,13.07
2019-05-20T17:59:48.090Z,13.12
2019-05-20T18:02:18.872Z,13.14
2019-05-20T18:05:00.549Z,13.05
2019-05-20T18:10:43.977Z,12.38
2019-05-20T18:13:14.503Z,12.99
2019-05-20T18:15:43.924Z,12.97
2019-05-20T18:18:52.847Z,12.95
2019-05-20T18:21:22.450Z,12.99
2019-05-20T18:23:51.950Z,13.06
2019-05-20T18:26:21.474Z,13.10
2019-05-20T18:28:50.861Z,13.10
2019-05-20T18:31:32.000Z,13.15
2019-05-20T18:34:30.763Z,13.13
2019-05-20T18:40:13.197Z,13.14
2019-05-20T18:51:37.107Z,13.11
2019-05-20T18:54:06.799Z,13.06
2019-05-20T18:57:15.541Z,13.08
2019-05-20T19:05:40.165Z,13.02
2019-05-20T19:08:48.895Z,13.04
2019-05-20T19:11:57.709Z,13.00
2019-05-20T19:14:27.155Z,12.94
2019-05-20T19:16:56.573Z,12.91
2019-05-20T19:19:26.584Z,12.94
2019-05-20T19:22:35.230Z,12.94
2019-05-20T19:25:44.140Z,12.97
2019-05-20T19:31:28.503Z,12.96
2019-05-20T19:34:37.178Z,12.84
2019-05-20T19:37:46.050Z,12.83
2019-05-20T19:40:15.570Z,12.86
2019-05-20T19:42:45.426Z,12.77
2019-05-20T19:45:54.475Z,12.77
2019-05-20T19:48:24.047Z,12.83
2019-05-20T19:50:53.569Z,12.92
2019-05-20T19:53:23.345Z,12.83
2019-05-20T19:55:52.885Z,12.78
2019-05-20T19:58:22.265Z,12.73
2019-05-20T20:03:46.780Z,12.67
2019-05-20T20:06:16.289Z,12.70
2019-05-20T20:11:41.604Z,12.67
2019-05-20T20:14:11.043Z,12.69
2019-05-20T20:16:41.046Z,12.70
2019-05-20T20:19:10.806Z,12.73
2019-05-20T20:21:59.306Z,12.76
2019-05-20T20:24:39.467Z,12.77
2019-05-20T20:27:08.996Z,12.80
2019-05-20T20:30:17.773Z,12.82
2019-05-20T20:32:47.503Z,12.81
2019-05-20T20:35:56.186Z,12.74
2019-05-20T20:38:26.193Z,12.78
2019-05-20T20:40:55.899Z,12.85
2019-05-20T20:43:25.560Z,12.80
2019-05-20T20:45:55.071Z,12.74
2019-05-20T20:48:24.675Z,12.76
2019-05-20T20:50:54.095Z,12.81
2019-05-20T20:54:02.787Z,12.80
2019-05-20T20:56:34.320Z,12.80
2019-05-20T20:59:22.493Z,12.77
2019-05-20T21:01:55.343Z,12.70
2019-05-20T21:04:23.100Z,12.75
2019-05-20T21:07:32.146Z,12.78
2019-05-20T21:13:28.138Z,12.85
2019-05-20T21:16:16.370Z,12.87
2019-05-20T21:21:46.688Z,12.94
2019-05-20T21:24:16.080Z,12.93
2019-05-20T21:26:45.648Z,12.99
2019-05-20T21:29:15.231Z,13.00
2019-05-20T21:31:44.676Z,13.00
2019-05-20T21:34:53.371Z,13.02
2019-05-20T21:37:22.791Z,13.08
2019-05-20T21:39:52.185Z,13.14
2019-05-20T21:42:21.615Z,13.18
2019-05-20T21:50:47.817Z,13.17
2019-05-20T21:53:17.191Z,13.14
2019-05-20T21:55:46.788Z,13.10
2019-05-20T21:58:16.318Z,13.04
2019-05-20T22:01:25.100Z,12.97
2019-05-20T22:04:15.009Z,12.90
2019-05-20T22:09:36.730Z,12.91
2019-05-20T22:12:06.364Z,12.92
2019-05-20T22:14:35.978Z,12.38
2019-05-20T22:17:05.593Z,12.84
2019-05-20T22:19:35.090Z,12.81
2019-05-20T22:24:59.979Z,12.95
2019-05-20T22:27:36.790Z,12.97
2019-05-20T22:30:45.996Z,13.04
2019-05-20T22:33:15.545Z,13.11
2019-05-20T22:38:41.110Z,13.12
2019-05-20T22:41:10.692Z,13.04
2019-05-20T22:43:40.335Z,13.10
2019-05-20T22:46:09.827Z,13.17
2019-05-20T22:48:39.327Z,13.21
2019-05-20T22:51:08.812Z,13.27
2019-05-20T22:53:38.215Z,13.32
2019-05-20T22:56:07.739Z,13.23
2019-05-20T22:59:16.478Z,13.26
2019-05-20T23:01:46.180Z,13.31
2019-05-20T23:04:26.310Z,12.95
2019-05-20T23:06:55.814Z,13.28
2019-05-20T23:09:25.236Z,13.28
2019-05-20T23:11:54.621Z,13.25
2019-05-20T23:17:32.747Z,13.29
2019-05-20T23:20:02.244Z,13.25
2019-05-20T23:28:35.921Z,13.32
2019-05-20T23:31:05.901Z,13.23
2019-05-20T23:33:35.476Z,13.28
2019-05-20T23:36:44.186Z,13.32
2019-05-20T23:39:13.885Z,13.37
2019-05-20T23:42:22.601Z,13.39
2019-05-20T23:48:00.841Z,13.34
2019-05-20T23:50:30.509Z,13.36
2019-05-20T23:53:39.614Z,13.39
2019-05-20T23:59:00.294Z,13.39
